Airfield :
LOGIN :

Register | Disclaimer

   EN    FR    IT 

 










Legend :    VFR   Marginal VFR   IFR   Intensive IFR   Very Intensive IFR
Visi :
Ceiling :
>= 8 km
>= 3000ft
5 to 8 km
1000 to 3000 ft
1500m to 5 km
500 to 1000 ft
800 to 1500m
200 to 500 ft
< 800m
< 200 ft
Symbols :   Thunderstorms  Fog  Heavy snow  Heavy precipitations  Wind > 20 kt
SIGMETs :     Misc.  Thunderstorms  Icing  Turbulence  Mountain Waves  Volcanic Ashes







- Airport Elevation : 76 ft
- IATA code : KID


ESMK - Kristianstad

CURRENT METAR :
  • 241050Z AUTO VRB02KT 9999 NCD 23/15 Q1026

EXPIRED METARs :
  • 241020Z AUTO VRB03KT 9999 NCD 22/16 Q1026
  • 240950Z AUTO VRB02KT 9999 FEW023/// 22/15 Q1027
  • 240920Z AUTO 36003KT 310V080 9999 NCD 21/16 Q1027
  • 240850Z AUTO VRB03KT 9999 FEW017/// 20/16 Q1027
  • 240820Z AUTO 04004KT 360V080 9999 FEW013/// 20/16 Q1027
  • 240750Z AUTO 03005KT 350V060 9999 NCD 19/16 Q1027

Expired Forecast.
No reported NOTAMs for that airfield.



MET'MAP, your aeronautical weather chart ! - Copyright ORBIFLY December 2007 - Disclaimer

ORBIFLY MET'MAP TEAM :

Programming & Development : Alexandra Zaïnal
Concept & Development : Baudouin d'Aumeries
Co-Development & Prog : Marc-Olivier Méhu
Technical & hardware support : Manuel Goepfert

Contact : metmap@orbifly.com




SOURCES & CREDITS :

   NOAA